Terminal Aerodrome Forecast
Issued by NWS

Home | Current Version | Previous Version | Text Only | Print | Product List | Glossary On
Versions: 1 2 3 4 5 6 7 8 9 10 11 12 13 14
000
FTUS42 KMHX 021731
TAFISO
TAF
KISO 021731Z 0218/0318 VRB06KT P6SM VCTS SCT020 BKN040CB
      TEMPO 0218/0219 4SM SHRA BKN020
     FM030100 03003KT P6SM VCSH SCT015 OVC040
     FM030800 05003KT 3SM BR VCSH BKN009
     FM031300 VRB05KT P6SM VCTS BKN025CB
      AMD LTD TO CLD VIS AND WIND=

USA.gov is the U.S. government's official web portal to all federal, state and local government web resources and services.